sensor_id;sensor_type;location;lat;lon;timestamp;P1;durP1;ratioP1;P2;durP2;ratioP2
33952;SDS011;20231;42.710;23.280;2023-02-01T00:01:17;4.90;;;3.63;;
33952;SDS011;20231;42.710;23.280;2023-02-01T00:03:42;7.63;;;4.28;;
33952;SDS011;20231;42.710;23.280;2023-02-01T00:06:08;7.47;;;4.88;;
33952;SDS011;20231;42.710;23.280;2023-02-01T00:08:33;4.78;;;4.10;;
33952;SDS011;20231;42.710;23.280;2023-02-01T00:11:06;4.90;;;4.07;;
33952;SDS011;20231;42.710;23.280;2023-02-01T00:13:35;7.75;;;4.13;;
33952;SDS011;20231;42.710;23.280;2023-02-01T00:16:06;7.90;;;3.75;;
33952;SDS011;20231;42.710;23.280;2023-02-01T00:18:33;5.72;;;4.20;;
33952;SDS011;20231;42.710;23.280;2023-02-01T00:20:59;5.88;;;4.00;;
33952;SDS011;20231;42.710;23.280;2023-02-01T00:23:25;5.95;;;4.18;;
33952;SDS011;20231;42.710;23.280;2023-02-01T00:25:51;7.93;;;4.70;;
33952;SDS011;20231;42.710;23.280;2023-02-01T00:28:16;6.35;;;4.30;;
33952;SDS011;20231;42.710;23.280;2023-02-01T00:30:41;5.93;;;4.50;;
33952;SDS011;20231;42.710;23.280;2023-02-01T00:33:07;5.55;;;4.05;;
33952;SDS011;20231;42.710;23.280;2023-02-01T00:35:35;10.73;;;4.30;;
33952;SDS011;20231;42.710;23.280;2023-02-01T00:38:01;4.72;;;3.92;;
33952;SDS011;20231;42.710;23.280;2023-02-01T00:40:27;7.97;;;5.57;;
33952;SDS011;20231;42.710;23.280;2023-02-01T00:42:52;8.25;;;3.97;;
33952;SDS011;20231;42.710;23.280;2023-02-01T00:45:18;5.35;;;3.85;;
33952;SDS011;20231;42.710;23.280;2023-02-01T00:47:44;6.43;;;4.22;;
33952;SDS011;20231;42.710;23.280;2023-02-01T00:50:10;5.68;;;3.83;;
33952;SDS011;20231;42.710;23.280;2023-02-01T00:52:35;5.75;;;3.83;;
33952;SDS011;20231;42.710;23.280;2023-02-01T00:55:01;5.32;;;3.15;;
33952;SDS011;20231;42.710;23.280;2023-02-01T00:57:26;6.95;;;3.75;;
33952;SDS011;20231;42.710;23.280;2023-02-01T00:59:51;4.13;;;3.35;;
33952;SDS011;20231;42.710;23.280;2023-02-01T01:02:17;7.25;;;3.67;;
33952;SDS011;20231;42.710;23.280;2023-02-01T01:04:42;4.93;;;2.90;;
33952;SDS011;20231;42.710;23.280;2023-02-01T01:07:07;5.07;;;3.40;;
33952;SDS011;20231;42.710;23.280;2023-02-01T01:09:33;5.95;;;3.38;;
33952;SDS011;20231;42.710;23.280;2023-02-01T01:11:59;5.10;;;3.10;;
33952;SDS011;20231;42.710;23.280;2023-02-01T01:14:30;10.98;;;3.38;;
33952;SDS011;20231;42.710;23.280;2023-02-01T01:16:57;3.92;;;2.83;;
33952;SDS011;20231;42.710;23.280;2023-02-01T01:19:22;5.13;;;3.22;;
33952;SDS011;20231;42.710;23.280;2023-02-01T01:21:47;4.00;;;2.95;;
33952;SDS011;20231;42.710;23.280;2023-02-01T01:24:13;5.10;;;3.03;;
33952;SDS011;20231;42.710;23.280;2023-02-01T01:26:38;6.10;;;2.50;;
33952;SDS011;20231;42.710;23.280;2023-02-01T01:29:04;3.53;;;2.38;;
33952;SDS011;20231;42.710;23.280;2023-02-01T01:31:29;5.97;;;2.55;;
33952;SDS011;20231;42.710;23.280;2023-02-01T01:33:56;3.75;;;2.47;;
33952;SDS011;20231;42.710;23.280;2023-02-01T01:36:23;8.45;;;3.65;;
33952;SDS011;20231;42.710;23.280;2023-02-01T01:38:49;3.50;;;2.50;;
33952;SDS011;20231;42.710;23.280;2023-02-01T01:41:17;3.88;;;2.47;;
33952;SDS011;20231;42.710;23.280;2023-02-01T01:46:21;5.20;;;2.50;;
33952;SDS011;20231;42.710;23.280;2023-02-01T01:48:54;6.75;;;2.47;;
33952;SDS011;20231;42.710;23.280;2023-02-01T01:51:30;4.80;;;2.97;;
33952;SDS011;20231;42.710;23.280;2023-02-01T01:54:02;3.75;;;2.50;;
33952;SDS011;20231;42.710;23.280;2023-02-01T01:56:42;4.78;;;2.67;;
33952;SDS011;20231;42.710;23.280;2023-02-01T01:59:12;6.50;;;2.53;;
33952;SDS011;20231;42.710;23.280;2023-02-01T02:01:37;4.45;;;2.85;;
33952;SDS011;20231;42.710;23.280;2023-02-01T02:04:03;5.85;;;2.60;;
33952;SDS011;20231;42.710;23.280;2023-02-01T02:06:40;5.63;;;2.67;;
33952;SDS011;20231;42.710;23.280;2023-02-01T02:09:16;4.90;;;2.33;;
33952;SDS011;20231;42.710;23.280;2023-02-01T02:11:42;6.30;;;2.58;;
33952;SDS011;20231;42.710;23.280;2023-02-01T02:14:08;5.57;;;2.70;;
33952;SDS011;20231;42.710;23.280;2023-02-01T02:22:35;3.72;;;2.25;;
33952;SDS011;20231;42.710;23.280;2023-02-01T02:33:41;6.88;;;3.08;;
33952;SDS011;20231;42.710;23.280;2023-02-01T02:36:33;4.68;;;3.17;;
33952;SDS011;20231;42.710;23.280;2023-02-01T02:42:03;8.88;;;2.85;;
33952;SDS011;20231;42.710;23.280;2023-02-01T02:45:02;5.50;;;3.10;;
33952;SDS011;20231;42.710;23.280;2023-02-01T02:48:16;4.70;;;2.60;;
33952;SDS011;20231;42.710;23.280;2023-02-01T02:56:45;5.93;;;2.70;;
33952;SDS011;20231;42.710;23.280;2023-02-01T02:59:30;6.95;;;2.92;;
33952;SDS011;20231;42.710;23.280;2023-02-01T03:02:15;7.57;;;2.80;;
33952;SDS011;20231;42.710;23.280;2023-02-01T03:05:01;3.65;;;2.58;;
33952;SDS011;20231;42.710;23.280;2023-02-01T03:12:48;3.95;;;2.00;;
33952;SDS011;20231;42.710;23.280;2023-02-01T03:15:20;4.13;;;2.45;;
33952;SDS011;20231;42.710;23.280;2023-02-01T03:17:48;6.35;;;4.05;;
33952;SDS011;20231;42.710;23.280;2023-02-01T03:20:15;3.17;;;2.40;;
33952;SDS011;20231;42.710;23.280;2023-02-01T03:22:44;5.72;;;2.75;;
33952;SDS011;20231;42.710;23.280;2023-02-01T03:25:14;6.70;;;2.75;;
33952;SDS011;20231;42.710;23.280;2023-02-01T03:27:54;6.28;;;2.70;;
33952;SDS011;20231;42.710;23.280;2023-02-01T03:30:37;7.03;;;2.55;;
33952;SDS011;20231;42.710;23.280;2023-02-01T03:33:09;3.47;;;2.47;;
33952;SDS011;20231;42.710;23.280;2023-02-01T03:38:48;5.40;;;2.65;;
33952;SDS011;20231;42.710;23.280;2023-02-01T03:41:28;5.55;;;2.67;;
33952;SDS011;20231;42.710;23.280;2023-02-01T03:46:33;7.28;;;2.53;;
33952;SDS011;20231;42.710;23.280;2023-02-01T03:49:06;5.40;;;2.20;;
33952;SDS011;20231;42.710;23.280;2023-02-01T03:51:36;5.38;;;2.53;;
33952;SDS011;20231;42.710;23.280;2023-02-01T03:54:05;4.85;;;2.55;;
33952;SDS011;20231;42.710;23.280;2023-02-01T03:56:35;3.60;;;2.05;;
33952;SDS011;20231;42.710;23.280;2023-02-01T03:59:02;3.88;;;2.05;;
33952;SDS011;20231;42.710;23.280;2023-02-01T04:01:29;3.83;;;1.98;;
33952;SDS011;20231;42.710;23.280;2023-02-01T04:03:55;4.07;;;2.30;;
33952;SDS011;20231;42.710;23.280;2023-02-01T04:06:21;3.70;;;2.30;;
33952;SDS011;20231;42.710;23.280;2023-02-01T04:08:47;3.70;;;1.95;;
33952;SDS011;20231;42.710;23.280;2023-02-01T04:11:12;3.70;;;2.10;;
33952;SDS011;20231;42.710;23.280;2023-02-01T04:13:38;7.97;;;2.22;;
33952;SDS011;20231;42.710;23.280;2023-02-01T04:16:03;4.00;;;2.40;;
33952;SDS011;20231;42.710;23.280;2023-02-01T04:18:29;4.05;;;2.20;;
33952;SDS011;20231;42.710;23.280;2023-02-01T04:20:54;2.30;;;2.00;;
33952;SDS011;20231;42.710;23.280;2023-02-01T04:23:19;3.42;;;2.28;;
33952;SDS011;20231;42.710;23.280;2023-02-01T04:25:45;7.63;;;2.10;;
33952;SDS011;20231;42.710;23.280;2023-02-01T04:28:11;4.45;;;2.03;;
33952;SDS011;20231;42.710;23.280;2023-02-01T04:30:36;6.78;;;2.65;;
33952;SDS011;20231;42.710;23.280;2023-02-01T04:33:02;4.05;;;2.00;;
33952;SDS011;20231;42.710;23.280;2023-02-01T04:35:30;4.75;;;2.05;;
33952;SDS011;20231;42.710;23.280;2023-02-01T04:37:55;9.57;;;2.78;;
33952;SDS011;20231;42.710;23.280;2023-02-01T04:40:21;3.38;;;2.47;;
33952;SDS011;20231;42.710;23.280;2023-02-01T04:42:46;6.00;;;2.85;;
33952;SDS011;20231;42.710;23.280;2023-02-01T04:45:12;5.57;;;2.55;;
33952;SDS011;20231;42.710;23.280;2023-02-01T04:47:38;4.78;;;2.55;;
33952;SDS011;20231;42.710;23.280;2023-02-01T04:50:03;5.88;;;2.75;;
33952;SDS011;20231;42.710;23.280;2023-02-01T04:52:30;5.00;;;2.53;;
33952;SDS011;20231;42.710;23.280;2023-02-01T04:54:56;7.40;;;3.33;;
33952;SDS011;20231;42.710;23.280;2023-02-01T04:57:24;4.53;;;2.90;;
33952;SDS011;20231;42.710;23.280;2023-02-01T04:59:50;5.30;;;3.38;;
33952;SDS011;20231;42.710;23.280;2023-02-01T05:02:15;10.95;;;4.35;;
33952;SDS011;20231;42.710;23.280;2023-02-01T05:04:40;6.70;;;3.13;;
33952;SDS011;20231;42.710;23.280;2023-02-01T05:07:06;4.97;;;3.15;;
33952;SDS011;20231;42.710;23.280;2023-02-01T05:09:31;5.72;;;3.60;;
33952;SDS011;20231;42.710;23.280;2023-02-01T05:11:57;5.65;;;3.13;;
33952;SDS011;20231;42.710;23.280;2023-02-01T05:14:40;5.65;;;2.95;;
33952;SDS011;20231;42.710;23.280;2023-02-01T05:17:06;6.40;;;2.92;;
33952;SDS011;20231;42.710;23.280;2023-02-01T05:19:31;15.85;;;3.35;;
33952;SDS011;20231;42.710;23.280;2023-02-01T05:21:57;7.60;;;2.78;;
33952;SDS011;20231;42.710;23.280;2023-02-01T05:24:22;6.90;;;3.17;;
33952;SDS011;20231;42.710;23.280;2023-02-01T05:26:48;11.30;;;3.20;;
33952;SDS011;20231;42.710;23.280;2023-02-01T05:29:14;7.82;;;3.20;;
33952;SDS011;20231;42.710;23.280;2023-02-01T05:31:40;6.68;;;2.95;;
33952;SDS011;20231;42.710;23.280;2023-02-01T05:34:06;8.40;;;3.30;;
33952;SDS011;20231;42.710;23.280;2023-02-01T05:36:33;3.70;;;2.95;;
33952;SDS011;20231;42.710;23.280;2023-02-01T05:38:58;4.68;;;2.80;;
33952;SDS011;20231;42.710;23.280;2023-02-01T05:41:24;6.80;;;3.22;;
33952;SDS011;20231;42.710;23.280;2023-02-01T05:43:49;5.78;;;2.78;;
33952;SDS011;20231;42.710;23.280;2023-02-01T05:46:15;5.75;;;2.95;;
33952;SDS011;20231;42.710;23.280;2023-02-01T05:48:40;12.10;;;3.40;;
33952;SDS011;20231;42.710;23.280;2023-02-01T05:51:07;3.40;;;2.58;;
33952;SDS011;20231;42.710;23.280;2023-02-01T05:53:33;6.68;;;2.92;;
33952;SDS011;20231;42.710;23.280;2023-02-01T05:55:58;9.52;;;3.63;;
33952;SDS011;20231;42.710;23.280;2023-02-01T05:58:23;6.38;;;3.75;;
33952;SDS011;20231;42.710;23.280;2023-02-01T06:00:49;5.65;;;3.95;;
33952;SDS011;20231;42.710;23.280;2023-02-01T06:03:14;8.05;;;4.38;;
33952;SDS011;20231;42.710;23.280;2023-02-01T06:05:40;12.45;;;3.15;;
33952;SDS011;20231;42.710;23.280;2023-02-01T06:08:05;7.40;;;3.10;;
33952;SDS011;20231;42.710;23.280;2023-02-01T06:10:32;8.70;;;3.50;;
33952;SDS011;20231;42.710;23.280;2023-02-01T06:12:58;5.78;;;3.50;;
33952;SDS011;20231;42.710;23.280;2023-02-01T06:15:23;7.82;;;3.15;;
33952;SDS011;20231;42.710;23.280;2023-02-01T06:17:49;7.53;;;3.58;;
33952;SDS011;20231;42.710;23.280;2023-02-01T06:20:14;9.23;;;4.60;;
33952;SDS011;20231;42.710;23.280;2023-02-01T06:22:40;11.02;;;3.38;;
33952;SDS011;20231;42.710;23.280;2023-02-01T06:25:06;8.32;;;3.22;;
33952;SDS011;20231;42.710;23.280;2023-02-01T06:27:34;8.27;;;3.50;;
33952;SDS011;20231;42.710;23.280;2023-02-01T06:29:59;9.43;;;3.40;;
33952;SDS011;20231;42.710;23.280;2023-02-01T06:32:25;7.90;;;3.47;;
33952;SDS011;20231;42.710;23.280;2023-02-01T06:34:50;10.00;;;3.42;;
33952;SDS011;20231;42.710;23.280;2023-02-01T06:37:17;13.85;;;3.63;;
33952;SDS011;20231;42.710;23.280;2023-02-01T06:39:46;10.35;;;2.90;;
33952;SDS011;20231;42.710;23.280;2023-02-01T06:42:11;8.73;;;3.53;;
33952;SDS011;20231;42.710;23.280;2023-02-01T06:44:37;4.70;;;3.00;;
33952;SDS011;20231;42.710;23.280;2023-02-01T06:47:03;5.43;;;3.28;;
33952;SDS011;20231;42.710;23.280;2023-02-01T06:49:29;9.30;;;3.30;;
33952;SDS011;20231;42.710;23.280;2023-02-01T06:51:54;7.95;;;2.80;;
33952;SDS011;20231;42.710;23.280;2023-02-01T06:54:19;6.20;;;2.38;;
33952;SDS011;20231;42.710;23.280;2023-02-01T06:56:45;6.35;;;3.58;;
33952;SDS011;20231;42.710;23.280;2023-02-01T06:59:10;11.00;;;3.10;;
33952;SDS011;20231;42.710;23.280;2023-02-01T07:01:36;5.70;;;2.90;;
33952;SDS011;20231;42.710;23.280;2023-02-01T07:04:01;10.65;;;3.38;;
33952;SDS011;20231;42.710;23.280;2023-02-01T07:06:27;9.48;;;3.25;;
33952;SDS011;20231;42.710;23.280;2023-02-01T07:08:53;10.18;;;2.92;;
33952;SDS011;20231;42.710;23.280;2023-02-01T07:11:21;7.57;;;3.20;;
33952;SDS011;20231;42.710;23.280;2023-02-01T07:13:46;10.13;;;2.80;;
33952;SDS011;20231;42.710;23.280;2023-02-01T07:16:13;7.78;;;3.25;;
33952;SDS011;20231;42.710;23.280;2023-02-01T07:18:40;4.25;;;2.58;;
33952;SDS011;20231;42.710;23.280;2023-02-01T07:21:05;8.07;;;3.67;;
33952;SDS011;20231;42.710;23.280;2023-02-01T07:23:31;5.22;;;2.47;;
33952;SDS011;20231;42.710;23.280;2023-02-01T07:25:58;9.70;;;2.83;;
33952;SDS011;20231;42.710;23.280;2023-02-01T07:28:25;7.63;;;2.88;;
33952;SDS011;20231;42.710;23.280;2023-02-01T07:30:53;13.18;;;3.63;;
33952;SDS011;20231;42.710;23.280;2023-02-01T07:33:19;9.23;;;3.33;;
33952;SDS011;20231;42.710;23.280;2023-02-01T07:35:46;6.72;;;2.92;;
33952;SDS011;20231;42.710;23.280;2023-02-01T07:38:12;9.55;;;3.08;;
33952;SDS011;20231;42.710;23.280;2023-02-01T07:40:38;10.02;;;4.43;;
33952;SDS011;20231;42.710;23.280;2023-02-01T07:43:03;11.13;;;3.33;;
33952;SDS011;20231;42.710;23.280;2023-02-01T07:45:31;10.05;;;3.33;;
33952;SDS011;20231;42.710;23.280;2023-02-01T07:47:56;8.60;;;3.63;;
33952;SDS011;20231;42.710;23.280;2023-02-01T07:50:22;6.80;;;3.08;;
33952;SDS011;20231;42.710;23.280;2023-02-01T07:52:47;3.45;;;2.47;;
33952;SDS011;20231;42.710;23.280;2023-02-01T07:55:12;5.35;;;3.10;;
33952;SDS011;20231;42.710;23.280;2023-02-01T07:57:38;7.30;;;3.05;;
33952;SDS011;20231;42.710;23.280;2023-02-01T08:00:03;4.25;;;2.33;;
33952;SDS011;20231;42.710;23.280;2023-02-01T08:02:48;5.20;;;2.85;;
33952;SDS011;20231;42.710;23.280;2023-02-01T08:05:13;6.97;;;2.38;;
33952;SDS011;20231;42.710;23.280;2023-02-01T08:07:39;6.65;;;3.38;;
33952;SDS011;20231;42.710;23.280;2023-02-01T08:10:04;6.97;;;2.70;;
33952;SDS011;20231;42.710;23.280;2023-02-01T08:12:35;7.28;;;2.83;;
33952;SDS011;20231;42.710;23.280;2023-02-01T08:15:03;5.05;;;2.70;;
33952;SDS011;20231;42.710;23.280;2023-02-01T08:17:29;3.17;;;2.03;;
33952;SDS011;20231;42.710;23.280;2023-02-01T08:19:55;8.40;;;3.20;;
33952;SDS011;20231;42.710;23.280;2023-02-01T08:22:20;5.78;;;2.38;;
33952;SDS011;20231;42.710;23.280;2023-02-01T08:24:49;7.20;;;2.22;;
33952;SDS011;20231;42.710;23.280;2023-02-01T08:27:14;6.07;;;2.08;;
33952;SDS011;20231;42.710;23.280;2023-02-01T08:29:40;7.65;;;2.58;;
33952;SDS011;20231;42.710;23.280;2023-02-01T08:32:05;3.72;;;2.20;;
33952;SDS011;20231;42.710;23.280;2023-02-01T08:34:31;7.05;;;4.38;;
33952;SDS011;20231;42.710;23.280;2023-02-01T08:36:56;7.20;;;2.60;;
33952;SDS011;20231;42.710;23.280;2023-02-01T08:39:26;9.80;;;3.30;;
33952;SDS011;20231;42.710;23.280;2023-02-01T08:41:51;5.60;;;2.15;;
33952;SDS011;20231;42.710;23.280;2023-02-01T08:44:36;12.10;;;2.78;;
33952;SDS011;20231;42.710;23.280;2023-02-01T08:47:02;6.05;;;2.55;;
33952;SDS011;20231;42.710;23.280;2023-02-01T08:49:28;4.55;;;2.25;;
33952;SDS011;20231;42.710;23.280;2023-02-01T08:51:54;10.48;;;3.70;;
33952;SDS011;20231;42.710;23.280;2023-02-01T08:54:20;14.50;;;4.68;;
33952;SDS011;20231;42.710;23.280;2023-02-01T08:56:46;12.45;;;5.78;;
33952;SDS011;20231;42.710;23.280;2023-02-01T08:59:11;6.13;;;2.50;;
33952;SDS011;20231;42.710;23.280;2023-02-01T09:01:36;10.25;;;2.50;;
33952;SDS011;20231;42.710;23.280;2023-02-01T09:04:02;8.23;;;2.97;;
33952;SDS011;20231;42.710;23.280;2023-02-01T09:06:27;3.17;;;2.10;;
33952;SDS011;20231;42.710;23.280;2023-02-01T09:08:53;11.55;;;3.05;;
33952;SDS011;20231;42.710;23.280;2023-02-01T09:11:18;9.07;;;2.47;;
33952;SDS011;20231;42.710;23.280;2023-02-01T09:13:46;13.70;;;3.67;;
33952;SDS011;20231;42.710;23.280;2023-02-01T09:16:13;10.00;;;3.35;;
33952;SDS011;20231;42.710;23.280;2023-02-01T09:18:38;5.85;;;2.50;;
33952;SDS011;20231;42.710;23.280;2023-02-01T09:21:07;7.90;;;2.55;;
33952;SDS011;20231;42.710;23.280;2023-02-01T09:23:33;9.95;;;3.05;;
33952;SDS011;20231;42.710;23.280;2023-02-01T09:26:00;5.97;;;2.03;;
33952;SDS011;20231;42.710;23.280;2023-02-01T09:28:26;10.43;;;2.42;;
33952;SDS011;20231;42.710;23.280;2023-02-01T09:30:56;6.97;;;2.53;;
33952;SDS011;20231;42.710;23.280;2023-02-01T09:33:22;6.95;;;2.00;;
33952;SDS011;20231;42.710;23.280;2023-02-01T09:35:49;7.72;;;2.55;;
33952;SDS011;20231;42.710;23.280;2023-02-01T09:38:14;4.18;;;2.00;;
33952;SDS011;20231;42.710;23.280;2023-02-01T09:40:41;8.15;;;2.22;;
33952;SDS011;20231;42.710;23.280;2023-02-01T09:48:32;9.85;;;2.03;;
33952;SDS011;20231;42.710;23.280;2023-02-01T09:51:04;7.07;;;2.05;;
33952;SDS011;20231;42.710;23.280;2023-02-01T09:53:38;4.78;;;1.90;;
33952;SDS011;20231;42.710;23.280;2023-02-01T09:56:30;7.22;;;2.70;;
33952;SDS011;20231;42.710;23.280;2023-02-01T10:01:51;2.92;;;2.17;;
33952;SDS011;20231;42.710;23.280;2023-02-01T10:04:17;4.25;;;1.90;;
33952;SDS011;20231;42.710;23.280;2023-02-01T10:16:55;7.57;;;1.80;;
33952;SDS011;20231;42.710;23.280;2023-02-01T10:19:38;6.05;;;2.58;;
33952;SDS011;20231;42.710;23.280;2023-02-01T10:22:09;3.92;;;2.22;;
33952;SDS011;20231;42.710;23.280;2023-02-01T10:27:22;4.10;;;1.73;;
33952;SDS011;20231;42.710;23.280;2023-02-01T10:30:33;3.95;;;2.15;;
33952;SDS011;20231;42.710;23.280;2023-02-01T10:32:50;8.48;;;2.42;;
33952;SDS011;20231;42.710;23.280;2023-02-01T10:35:31;10.70;;;3.03;;
33952;SDS011;20231;42.710;23.280;2023-02-01T10:38:01;8.35;;;2.50;;
33952;SDS011;20231;42.710;23.280;2023-02-01T10:40:28;11.73;;;3.22;;
33952;SDS011;20231;42.710;23.280;2023-02-01T10:42:54;10.98;;;3.15;;
33952;SDS011;20231;42.710;23.280;2023-02-01T10:45:24;7.47;;;2.78;;
33952;SDS011;20231;42.710;23.280;2023-02-01T10:47:53;6.60;;;2.38;;
33952;SDS011;20231;42.710;23.280;2023-02-01T10:53:44;2.88;;;1.90;;
33952;SDS011;20231;42.710;23.280;2023-02-01T10:55:54;4.97;;;2.00;;
33952;SDS011;20231;42.710;23.280;2023-02-01T10:58:25;7.40;;;2.25;;
33952;SDS011;20231;42.710;23.280;2023-02-01T11:05:53;9.23;;;2.38;;
33952;SDS011;20231;42.710;23.280;2023-02-01T11:08:21;7.18;;;2.30;;
33952;SDS011;20231;42.710;23.280;2023-02-01T11:10:46;2.30;;;1.63;;
33952;SDS011;20231;42.710;23.280;2023-02-01T11:13:16;5.65;;;1.95;;
33952;SDS011;20231;42.710;23.280;2023-02-01T11:15:46;6.25;;;2.30;;
33952;SDS011;20231;42.710;23.280;2023-02-01T11:18:20;6.35;;;1.80;;
33952;SDS011;20231;42.710;23.280;2023-02-01T11:20:52;3.45;;;1.80;;
33952;SDS011;20231;42.710;23.280;2023-02-01T11:23:20;8.55;;;2.17;;
33952;SDS011;20231;42.710;23.280;2023-02-01T11:25:58;2.38;;;1.67;;
33952;SDS011;20231;42.710;23.280;2023-02-01T11:28:30;4.03;;;1.90;;
33952;SDS011;20231;42.710;23.280;2023-02-01T11:31:04;2.45;;;1.55;;
33952;SDS011;20231;42.710;23.280;2023-02-01T11:33:35;3.25;;;1.60;;
33952;SDS011;20231;42.710;23.280;2023-02-01T11:36:13;5.20;;;2.17;;
33952;SDS011;20231;42.710;23.280;2023-02-01T11:38:46;6.30;;;2.55;;
33952;SDS011;20231;42.710;23.280;2023-02-01T11:41:22;3.67;;;1.90;;
33952;SDS011;20231;42.710;23.280;2023-02-01T11:46:19;5.10;;;1.88;;
33952;SDS011;20231;42.710;23.280;2023-02-01T11:48:50;5.47;;;2.20;;
33952;SDS011;20231;42.710;23.280;2023-02-01T12:05:39;4.30;;;1.95;;
33952;SDS011;20231;42.710;23.280;2023-02-01T12:16:00;3.55;;;1.88;;
33952;SDS011;20231;42.710;23.280;2023-02-01T12:21:34;6.88;;;2.00;;
33952;SDS011;20231;42.710;23.280;2023-02-01T12:44:03;4.50;;;1.50;;
33952;SDS011;20231;42.710;23.280;2023-02-01T12:46:40;3.90;;;1.80;;
33952;SDS011;20231;42.710;23.280;2023-02-01T12:49:11;4.10;;;1.77;;
33952;SDS011;20231;42.710;23.280;2023-02-01T12:51:43;4.28;;;2.10;;
33952;SDS011;20231;42.710;23.280;2023-02-01T12:59:22;7.88;;;2.15;;
33952;SDS011;20231;42.710;23.280;2023-02-01T13:04:33;3.33;;;1.55;;
33952;SDS011;20231;42.710;23.280;2023-02-01T13:07:11;5.50;;;2.25;;
33952;SDS011;20231;42.710;23.280;2023-02-01T13:09:43;3.40;;;1.77;;
33952;SDS011;20231;42.710;23.280;2023-02-01T13:12:19;2.42;;;1.75;;
33952;SDS011;20231;42.710;23.280;2023-02-01T13:14:55;4.18;;;1.73;;
33952;SDS011;20231;42.710;23.280;2023-02-01T13:17:28;3.85;;;1.67;;
33952;SDS011;20231;42.710;23.280;2023-02-01T13:19:57;4.72;;;1.83;;
33952;SDS011;20231;42.710;23.280;2023-02-01T13:22:39;6.05;;;2.13;;
33952;SDS011;20231;42.710;23.280;2023-02-01T13:25:51;6.07;;;1.45;;
33952;SDS011;20231;42.710;23.280;2023-02-01T13:28:11;5.70;;;1.90;;
33952;SDS011;20231;42.710;23.280;2023-02-01T13:33:42;2.80;;;1.65;;
33952;SDS011;20231;42.710;23.280;2023-02-01T13:39:41;2.90;;;1.58;;
33952;SDS011;20231;42.710;23.280;2023-02-01T13:44:42;4.47;;;2.28;;
33952;SDS011;20231;42.710;23.280;2023-02-01T13:50:02;5.72;;;2.20;;
33952;SDS011;20231;42.710;23.280;2023-02-01T13:52:39;9.02;;;5.13;;
33952;SDS011;20231;42.710;23.280;2023-02-01T13:57:46;14.15;;;5.18;;
33952;SDS011;20231;42.710;23.280;2023-02-01T14:16:13;23.58;;;9.88;;
33952;SDS011;20231;42.710;23.280;2023-02-01T14:26:20;7.32;;;2.05;;
33952;SDS011;20231;42.710;23.280;2023-02-01T14:28:53;6.15;;;2.35;;
33952;SDS011;20231;42.710;23.280;2023-02-01T14:31:40;3.30;;;2.30;;
33952;SDS011;20231;42.710;23.280;2023-02-01T14:34:13;2.95;;;1.95;;
33952;SDS011;20231;42.710;23.280;2023-02-01T14:36:56;2.10;;;1.55;;
33952;SDS011;20231;42.710;23.280;2023-02-01T14:39:35;3.17;;;1.95;;
33952;SDS011;20231;42.710;23.280;2023-02-01T14:44:50;3.17;;;1.65;;
33952;SDS011;20231;42.710;23.280;2023-02-01T14:52:45;5.93;;;2.20;;
33952;SDS011;20231;42.710;23.280;2023-02-01T14:58:05;4.47;;;2.28;;
33952;SDS011;20231;42.710;23.280;2023-02-01T15:00:46;5.88;;;2.88;;
33952;SDS011;20231;42.710;23.280;2023-02-01T15:05:54;4.90;;;2.13;;
33952;SDS011;20231;42.710;23.280;2023-02-01T15:08:37;6.93;;;1.65;;
33952;SDS011;20231;42.710;23.280;2023-02-01T15:11:06;3.85;;;1.77;;
33952;SDS011;20231;42.710;23.280;2023-02-01T15:13:38;6.32;;;2.25;;
33952;SDS011;20231;42.710;23.280;2023-02-01T15:18:39;5.57;;;2.78;;
33952;SDS011;20231;42.710;23.280;2023-02-01T15:21:06;4.20;;;2.42;;
33952;SDS011;20231;42.710;23.280;2023-02-01T15:23:39;5.80;;;2.25;;
33952;SDS011;20231;42.710;23.280;2023-02-01T15:26:05;6.85;;;2.97;;
33952;SDS011;20231;42.710;23.280;2023-02-01T15:28:30;6.10;;;2.40;;
33952;SDS011;20231;42.710;23.280;2023-02-01T15:31:00;6.30;;;2.30;;
33952;SDS011;20231;42.710;23.280;2023-02-01T15:33:29;7.60;;;3.88;;
33952;SDS011;20231;42.710;23.280;2023-02-01T15:38:39;13.60;;;4.30;;
33952;SDS011;20231;42.710;23.280;2023-02-01T15:41:16;9.60;;;4.30;;
33952;SDS011;20231;42.710;23.280;2023-02-01T15:46:24;7.10;;;4.38;;
33952;SDS011;20231;42.710;23.280;2023-02-01T15:49:01;5.97;;;3.08;;
33952;SDS011;20231;42.710;23.280;2023-02-01T15:51:28;4.55;;;2.85;;
33952;SDS011;20231;42.710;23.280;2023-02-01T15:54:40;3.78;;;2.65;;
33952;SDS011;20231;42.710;23.280;2023-02-01T15:56:54;7.20;;;2.85;;
33952;SDS011;20231;42.710;23.280;2023-02-01T15:59:24;8.80;;;4.25;;
33952;SDS011;20231;42.710;23.280;2023-02-01T16:01:55;6.65;;;3.05;;
33952;SDS011;20231;42.710;23.280;2023-02-01T16:04:22;9.00;;;3.35;;
33952;SDS011;20231;42.710;23.280;2023-02-01T16:06:53;12.38;;;3.65;;
33952;SDS011;20231;42.710;23.280;2023-02-01T16:09:21;13.85;;;5.03;;
33952;SDS011;20231;42.710;23.280;2023-02-01T16:11:52;12.15;;;5.07;;
33952;SDS011;20231;42.710;23.280;2023-02-01T16:14:20;20.67;;;7.43;;
33952;SDS011;20231;42.710;23.280;2023-02-01T16:16:46;13.23;;;6.30;;
33952;SDS011;20231;42.710;23.280;2023-02-01T16:19:12;11.13;;;5.72;;
33952;SDS011;20231;42.710;23.280;2023-02-01T16:21:38;17.13;;;7.32;;
33952;SDS011;20231;42.710;23.280;2023-02-01T16:24:03;11.70;;;6.53;;
33952;SDS011;20231;42.710;23.280;2023-02-01T16:26:30;11.52;;;4.38;;
33952;SDS011;20231;42.710;23.280;2023-02-01T16:28:56;11.18;;;5.38;;
33952;SDS011;20231;42.710;23.280;2023-02-01T16:31:25;13.80;;;6.45;;
33952;SDS011;20231;42.710;23.280;2023-02-01T16:33:54;6.40;;;3.78;;
33952;SDS011;20231;42.710;23.280;2023-02-01T16:36:19;6.25;;;3.38;;
33952;SDS011;20231;42.710;23.280;2023-02-01T16:38:46;7.07;;;4.15;;
33952;SDS011;20231;42.710;23.280;2023-02-01T16:41:14;7.03;;;3.22;;
33952;SDS011;20231;42.710;23.280;2023-02-01T16:43:43;9.45;;;4.03;;
33952;SDS011;20231;42.710;23.280;2023-02-01T16:46:16;6.47;;;3.45;;
33952;SDS011;20231;42.710;23.280;2023-02-01T16:48:46;9.75;;;3.70;;
33952;SDS011;20231;42.710;23.280;2023-02-01T16:51:16;11.60;;;5.80;;
33952;SDS011;20231;42.710;23.280;2023-02-01T16:53:42;8.35;;;4.28;;
33952;SDS011;20231;42.710;23.280;2023-02-01T16:56:16;7.68;;;4.75;;
33952;SDS011;20231;42.710;23.280;2023-02-01T16:58:46;5.32;;;2.85;;
33952;SDS011;20231;42.710;23.280;2023-02-01T17:01:13;9.70;;;4.70;;
33952;SDS011;20231;42.710;23.280;2023-02-01T17:03:40;6.53;;;3.15;;
33952;SDS011;20231;42.710;23.280;2023-02-01T17:06:07;8.70;;;4.03;;
33952;SDS011;20231;42.710;23.280;2023-02-01T17:08:35;9.63;;;4.80;;
33952;SDS011;20231;42.710;23.280;2023-02-01T17:11:04;14.30;;;5.88;;
33952;SDS011;20231;42.710;23.280;2023-02-01T17:13:31;12.75;;;5.80;;
33952;SDS011;20231;42.710;23.280;2023-02-01T17:16:30;12.43;;;5.93;;
33952;SDS011;20231;42.710;23.280;2023-02-01T17:18:54;7.25;;;4.13;;
33952;SDS011;20231;42.710;23.280;2023-02-01T17:21:29;7.95;;;2.85;;
33952;SDS011;20231;42.710;23.280;2023-02-01T17:23:59;8.18;;;3.63;;
33952;SDS011;20231;42.710;23.280;2023-02-01T17:26:25;8.27;;;3.70;;
33952;SDS011;20231;42.710;23.280;2023-02-01T17:28:51;10.52;;;4.10;;
33952;SDS011;20231;42.710;23.280;2023-02-01T17:31:17;8.38;;;3.45;;
33952;SDS011;20231;42.710;23.280;2023-02-01T17:33:42;5.80;;;3.17;;
33952;SDS011;20231;42.710;23.280;2023-02-01T17:36:10;5.47;;;2.65;;
33952;SDS011;20231;42.710;23.280;2023-02-01T17:38:37;4.32;;;2.13;;
33952;SDS011;20231;42.710;23.280;2023-02-01T17:41:03;6.13;;;2.22;;
33952;SDS011;20231;42.710;23.280;2023-02-01T17:43:28;9.52;;;2.47;;
33952;SDS011;20231;42.710;23.280;2023-02-01T17:45:55;8.60;;;2.60;;